Time;durP1;ratioP1;P1;durP2;ratioP2;P2;SDS_P1;SDS_P2;PMS_P1;PMS_P2;Temp;Humidity;BMP_temperature;BMP_pressure;BME280_temperature;BME280_humidity;BME280_pressure;Samples;Min_cycle;Max_cycle;Signal;HPM_P1;HPM_P2
2024/02/18 00:01:40;;;;;;;11.93;7.40;;;;;;;5.07;100.00;98937.19;5021284;28;20051;-63
2024/02/18 00:04:07;;;;;;;14.90;7.18;;;;;;;5.11;100.00;98939.50;5022513;28;20045;-62
2024/02/18 00:06:34;;;;;;;10.60;6.43;;;;;;;5.15;100.00;98933.63;5026344;28;20041;-64
2024/02/18 00:09:01;;;;;;;11.27;5.97;;;;;;;5.16;100.00;98924.53;5025301;28;20048;-64
2024/02/18 00:11:27;;;;;;;10.32;5.97;;;;;;;5.10;100.00;98927.94;5023058;28;20034;-62
2024/02/18 00:13:54;;;;;;;11.88;6.88;;;;;;;5.19;100.00;98921.50;5027928;28;20045;-64
2024/02/18 00:16:21;;;;;;;11.90;7.75;;;;;;;5.08;100.00;98929.97;5019731;28;20042;-62
2024/02/18 00:18:48;;;;;;;11.32;7.15;;;;;;;4.96;100.00;98926.84;5027390;28;20036;-63
2024/02/18 00:21:17;;;;;;;11.25;7.40;;;;;;;5.02;100.00;98925.31;5024445;28;20045;-64
2024/02/18 00:23:47;;;;;;;10.55;7.05;;;;;;;5.07;100.00;98930.97;5037032;28;20369;-63
2024/02/18 00:26:14;;;;;;;10.65;6.80;;;;;;;5.19;100.00;98928.72;5022901;28;20133;-62
2024/02/18 00:28:40;;;;;;;11.55;7.05;;;;;;;5.23;100.00;98926.53;5019996;28;20636;-63
2024/02/18 00:31:07;;;;;;;16.15;7.10;;;;;;;5.28;100.00;98932.19;5023139;28;20581;-63
2024/02/18 00:33:34;;;;;;;10.48;6.53;;;;;;;5.24;100.00;98926.34;5022664;28;20463;-63
2024/02/18 00:36:00;;;;;;;11.57;6.70;;;;;;;5.19;100.00;98920.66;5024881;28;20029;-63
2024/02/18 00:38:27;;;;;;;13.25;7.32;;;;;;;5.28;100.00;98927.66;5026585;28;20037;-64
2024/02/18 00:40:55;;;;;;;14.05;7.25;;;;;;;5.29;100.00;98921.28;5020825;28;20041;-63
2024/02/18 00:43:21;;;;;;;12.90;8.02;;;;;;;5.19;100.00;98915.28;5015698;28;20047;-63
2024/02/18 00:45:48;;;;;;;13.38;7.50;;;;;;;5.03;100.00;98922.47;5020011;28;20041;-63
2024/02/18 00:48:15;;;;;;;11.15;7.00;;;;;;;5.06;100.00;98914.03;5027311;28;20768;-64
2024/02/18 00:50:42;;;;;;;12.13;6.90;;;;;;;5.06;100.00;98913.22;5029755;28;20115;-63
2024/02/18 00:53:10;;;;;;;12.60;7.00;;;;;;;5.05;100.00;98915.03;5015209;28;20042;-64
2024/02/18 00:55:42;;;;;;;13.40;6.70;;;;;;;5.05;100.00;98914.22;5018217;28;20463;-64
2024/02/18 00:58:10;;;;;;;11.63;6.63;;;;;;;5.06;100.00;98914.03;5019693;28;20053;-63
2024/02/18 01:00:38;;;;;;;11.63;6.30;;;;;;;4.97;100.00;98916.97;5020490;28;20044;-64
2024/02/18 01:03:04;;;;;;;13.15;6.55;;;;;;;4.96;100.00;98913.44;5020212;28;20045;-62
2024/02/18 01:05:31;;;;;;;14.45;8.02;;;;;;;4.81;100.00;98914.19;5021409;28;20041;-62
2024/02/18 01:07:58;;;;;;;10.07;7.47;;;;;;;4.77;100.00;98917.41;5020441;28;20041;-63
2024/02/18 01:10:24;;;;;;;11.07;7.40;;;;;;;4.95;100.00;98915.28;5021747;28;20076;-63
2024/02/18 01:12:51;;;;;;;12.50;7.40;;;;;;;5.02;100.00;98909.22;5014666;28;20089;-63
2024/02/18 01:15:17;;;;;;;12.13;7.63;;;;;;;4.96;100.00;98908.06;5027021;28;20049;-64
2024/02/18 01:17:44;;;;;;;12.63;6.85;;;;;;;4.90;100.00;98911.47;5023045;28;20091;-65
2024/02/18 01:20:11;;;;;;;11.65;7.53;;;;;;;4.83;100.00;98908.63;5015372;28;20791;-63
2024/02/18 01:22:37;;;;;;;14.15;8.48;;;;;;;4.86;100.00;98907.47;5020617;28;20050;-63
2024/02/18 01:25:04;;;;;;;15.32;7.43;;;;;;;5.03;100.00;98900.13;5024335;28;20056;-63
2024/02/18 01:27:31;;;;;;;12.90;7.82;;;;;;;5.10;100.00;98893.03;5023246;28;20088;-65
2024/02/18 01:29:58;;;;;;;11.20;7.10;;;;;;;5.25;100.00;98890.41;5020396;28;20098;-63
2024/02/18 01:32:24;;;;;;;10.27;6.65;;;;;;;5.21;100.00;98897.16;5013754;28;20164;-63
2024/02/18 01:34:54;;;;;;;13.38;7.68;;;;;;;5.21;100.00;98894.47;5026624;28;20124;-62
2024/02/18 01:37:20;;;;;;;11.93;8.15;;;;;;;5.11;100.00;98896.53;5021130;28;20132;-64
2024/02/18 01:39:47;;;;;;;11.40;7.20;;;;;;;5.05;100.00;98885.50;5017396;28;20045;-64
2024/02/18 01:42:14;;;;;;;11.90;7.50;;;;;;;4.91;100.00;98883.59;5016130;28;20155;-64
2024/02/18 01:44:40;;;;;;;9.35;6.45;;;;;;;4.95;100.00;98884.91;5021455;28;20041;-64
2024/02/18 01:47:07;;;;;;;10.45;7.00;;;;;;;4.97;100.00;98884.75;5020045;28;20040;-64
2024/02/18 01:49:33;;;;;;;9.98;6.75;;;;;;;4.93;100.00;98886.94;5018831;28;20067;-64
2024/02/18 01:52:01;;;;;;;13.15;6.60;;;;;;;4.92;100.00;98890.63;5022207;28;20102;-63
2024/02/18 01:54:33;;;;;;;12.50;7.13;;;;;;;4.93;100.00;98889.63;5025359;28;20042;-62
2024/02/18 01:57:01;;;;;;;12.23;7.00;;;;;;;4.76;100.00;98897.75;5018147;28;20076;-63
2024/02/18 01:59:30;;;;;;;9.90;6.38;;;;;;;4.67;100.00;98890.78;5023728;28;20056;-64
2024/02/18 02:01:57;;;;;;;13.35;6.97;;;;;;;4.42;100.00;98882.84;5017171;28;20521;-64
2024/02/18 02:04:25;;;;;;;10.52;6.53;;;;;;;4.34;100.00;98886.41;5020284;28;20045;-63
2024/02/18 02:06:52;;;;;;;11.85;6.80;;;;;;;4.23;100.00;98886.78;5017168;28;20044;-64
2024/02/18 02:09:20;;;;;;;11.65;7.57;;;;;;;4.10;100.00;98887.34;5022356;28;20800;-64
2024/02/18 02:11:48;;;;;;;10.55;6.95;;;;;;;4.02;100.00;98885.53;5008415;28;20041;-65
2024/02/18 02:14:16;;;;;;;14.07;7.68;;;;;;;3.99;100.00;98884.03;5026303;28;20041;-63
2024/02/18 02:16:42;;;;;;;11.15;7.38;;;;;;;3.96;100.00;98878.16;5025432;28;20060;-63
2024/02/18 02:19:09;;;;;;;11.30;7.22;;;;;;;3.96;100.00;98887.03;5021277;28;20069;-63
2024/02/18 02:21:36;;;;;;;14.13;7.55;;;;;;;4.00;100.00;98884.84;5014012;28;20059;-64
2024/02/18 02:24:03;;;;;;;14.45;8.02;;;;;;;4.04;100.00;98888.84;5024384;28;20041;-64
2024/02/18 02:26:37;;;;;;;11.88;8.35;;;;;;;4.14;100.00;98889.50;5026465;28;20049;-64
2024/02/18 02:29:15;;;;;;;13.10;8.32;;;;;;;4.17;100.00;98880.28;5019123;28;20076;-63
2024/02/18 02:31:44;;;;;;;12.68;7.97;;;;;;;4.19;100.00;98885.44;5020949;28;20437;-63
2024/02/18 02:34:12;;;;;;;13.38;8.48;;;;;;;4.27;100.00;98883.59;5030363;28;20036;-64
2024/02/18 02:36:38;;;;;;;13.38;7.38;;;;;;;4.27;100.00;98882.75;5022200;28;20656;-64
2024/02/18 02:39:07;;;;;;;12.63;7.38;;;;;;;4.33;100.00;98881.22;5023698;28;20046;-64
2024/02/18 02:41:34;;;;;;;14.73;8.25;;;;;;;4.41;100.00;98878.50;5023293;28;20046;-64
2024/02/18 02:44:01;;;;;;;11.75;7.10;;;;;;;4.36;100.00;98876.34;5019636;28;20041;-62
2024/02/18 02:46:28;;;;;;;13.75;7.22;;;;;;;4.35;100.00;98874.66;5023495;28;20129;-63
2024/02/18 02:48:54;;;;;;;10.75;6.95;;;;;;;4.34;100.00;98883.72;5022583;28;20046;-64
2024/02/18 02:51:21;;;;;;;10.77;7.05;;;;;;;4.12;100.00;98880.78;5030611;28;20065;-63
2024/02/18 02:53:48;;;;;;;10.20;6.85;;;;;;;4.06;100.00;98876.13;5030452;28;20083;-63
2024/02/18 02:56:14;;;;;;;11.75;7.20;;;;;;;3.93;100.00;98875.81;5023430;28;20045;-62
2024/02/18 02:58:41;;;;;;;11.48;7.00;;;;;;;3.89;100.00;98878.84;5023833;28;20087;-63
2024/02/18 03:01:07;;;;;;;11.57;7.63;;;;;;;3.97;100.00;98875.31;5025740;28;20045;-63
2024/02/18 03:03:34;;;;;;;12.38;6.75;;;;;;;3.99;100.00;98872.47;5021402;28;20042;-64
2024/02/18 03:06:01;;;;;;;12.25;6.90;;;;;;;4.07;100.00;98874.28;5023230;28;20464;-64
2024/02/18 03:08:27;;;;;;;13.38;7.28;;;;;;;4.11;100.00;98875.59;5016791;28;21481;-63
2024/02/18 03:10:54;;;;;;;11.40;7.30;;;;;;;3.90;100.00;98875.16;5026145;28;20044;-63
2024/02/18 03:13:21;;;;;;;11.35;6.85;;;;;;;3.81;100.00;98860.13;5025030;28;20782;-63
2024/02/18 03:15:47;;;;;;;10.73;6.78;;;;;;;3.88;100.00;98862.94;5022335;28;20046;-63
2024/02/18 03:18:14;;;;;;;12.32;6.88;;;;;;;3.87;100.00;98870.13;5019702;28;20045;-63
2024/02/18 03:20:41;;;;;;;10.27;6.13;;;;;;;3.87;100.00;98859.41;5022335;28;20049;-65
2024/02/18 03:23:07;;;;;;;13.15;7.72;;;;;;;3.85;100.00;98861.44;5028531;28;20528;-63
2024/02/18 03:25:35;;;;;;;9.95;6.53;;;;;;;3.57;100.00;98855.66;5027773;28;20046;-63
2024/02/18 03:28:02;;;;;;;10.45;6.78;;;;;;;3.53;100.00;98852.47;5022908;28;20660;-63
2024/02/18 03:30:29;;;;;;;10.60;7.05;;;;;;;3.54;100.00;98856.81;5023015;28;20038;-63
2024/02/18 03:32:56;;;;;;;13.07;6.88;;;;;;;3.59;100.00;98857.16;5017991;28;20060;-64
2024/02/18 03:35:27;;;;;;;10.15;7.03;;;;;;;3.69;100.00;98854.25;5027063;28;20103;-63
2024/02/18 03:37:55;;;;;;;;;;;;;;;3.76;100.00;98847.22;5020824;28;20443;-63
2024/02/18 03:40:23;;;;;;;10.95;7.90;;;;;;;3.68;100.00;98846.44;5028256;28;19929;-63
2024/02/18 03:42:50;;;;;;;11.13;6.68;;;;;;;3.66;100.00;98859.13;5018433;28;20578;-65
2024/02/18 03:45:17;;;;;;;12.98;7.03;;;;;;;3.67;100.00;98855.44;5021227;28;20045;-64
2024/02/18 03:47:44;;;;;;;14.32;7.55;;;;;;;3.77;100.00;98856.94;5020808;28;20037;-63
2024/02/18 03:50:14;;;;;;;14.07;8.10;;;;;;;3.69;100.00;98843.53;5020524;28;20053;-64
2024/02/18 03:52:42;;;;;;;13.23;8.02;;;;;;;3.66;100.00;98846.59;5023008;28;20551;-64
2024/02/18 03:55:13;;;;;;;11.98;8.48;;;;;;;3.63;100.00;98847.78;5024118;28;20060;-63
2024/02/18 03:57:40;;;;;;;11.93;7.13;;;;;;;3.58;100.00;98844.75;5023833;28;20125;-63
2024/02/18 04:00:11;;;;;;;14.25;8.85;;;;;;;3.62;100.00;98850.63;5023230;28;20895;-63
2024/02/18 04:02:40;;;;;;;13.93;8.73;;;;;;;3.65;100.00;98850.28;5020005;28;20493;-63
2024/02/18 04:05:11;;;;;;;14.35;8.88;;;;;;;3.70;100.00;98850.59;5020931;28;20052;-63
2024/02/18 04:07:38;;;;;;;11.18;7.13;;;;;;;3.80;100.00;98854.94;5021916;28;20038;-64
2024/02/18 04:10:05;;;;;;;12.23;7.78;;;;;;;3.82;100.00;98847.53;5022616;28;20049;-63
2024/02/18 04:12:31;;;;;;;12.52;7.82;;;;;;;3.83;100.00;98839.34;5018303;28;20088;-63
2024/02/18 04:14:58;;;;;;;12.80;7.88;;;;;;;3.80;100.00;98850.41;5030561;28;20045;-63
2024/02/18 04:17:25;;;;;;;11.65;7.35;;;;;;;3.78;100.00;98841.69;5021933;28;20037;-63
2024/02/18 04:19:51;;;;;;;14.90;8.38;;;;;;;3.72;100.00;98845.91;5020411;28;20507;-63
2024/02/18 04:22:18;;;;;;;14.75;7.97;;;;;;;3.76;100.00;98847.22;5026524;28;20053;-62
2024/02/18 04:24:45;;;;;;;11.98;7.30;;;;;;;3.75;100.00;98842.88;5020199;28;20056;-62
2024/02/18 04:27:12;;;;;;;13.20;7.80;;;;;;;3.76;100.00;98844.53;5021517;28;20038;-62
2024/02/18 04:29:39;;;;;;;12.07;7.18;;;;;;;3.82;100.00;98842.19;5021440;28;20056;-64
2024/02/18 04:32:06;;;;;;;13.32;8.32;;;;;;;3.81;100.00;98835.16;5018442;28;20045;-63
2024/02/18 04:34:33;;;;;;;12.45;7.88;;;;;;;3.77;100.00;98827.44;5022609;28;20045;-63
2024/02/18 04:36:59;;;;;;;13.50;7.85;;;;;;;3.73;100.00;98830.66;5030940;28;20041;-62
2024/02/18 04:39:26;;;;;;;12.07;7.68;;;;;;;3.54;100.00;98842.59;5025159;28;20046;-63
2024/02/18 04:41:53;;;;;;;13.95;6.72;;;;;;;3.53;100.00;98838.25;5025293;28;20041;-62
2024/02/18 04:44:19;;;;;;;10.63;7.13;;;;;;;3.60;100.00;98833.88;5021632;28;20041;-64
2024/02/18 04:46:46;;;;;;;10.32;6.05;;;;;;;3.67;100.00;98836.69;5017726;28;20038;-63
2024/02/18 04:49:14;;;;;;;10.70;7.10;;;;;;;3.64;100.00;98840.56;5025400;28;20037;-64
2024/02/18 04:51:41;;;;;;;10.68;7.10;;;;;;;3.60;100.00;98831.19;5026079;28;20598;-64
2024/02/18 04:54:07;;;;;;;11.45;7.53;;;;;;;3.50;100.00;98836.72;5027703;28;20084;-63
2024/02/18 04:56:34;;;;;;;10.77;6.53;;;;;;;3.40;100.00;98833.41;5020967;28;20618;-63
2024/02/18 04:59:00;;;;;;;11.65;6.93;;;;;;;3.42;100.00;98832.22;5019469;28;20057;-64
2024/02/18 05:01:27;;;;;;;10.00;6.88;;;;;;;3.46;100.00;98838.91;5026307;28;20037;-64
2024/02/18 05:03:54;;;;;;;9.85;6.40;;;;;;;3.21;100.00;98825.53;5034755;28;20105;-62
2024/02/18 05:06:21;;;;;;;11.68;6.55;;;;;;;3.17;100.00;98831.41;5022135;28;20420;-64
2024/02/18 05:08:47;;;;;;;11.25;6.32;;;;;;;3.05;100.00;98829.06;5022780;28;20056;-63
2024/02/18 05:11:14;;;;;;;11.02;6.57;;;;;;;2.99;100.00;98833.25;5018785;28;20046;-64
2024/02/18 05:13:41;;;;;;;9.70;6.13;;;;;;;2.95;100.00;98829.22;5024475;28;20072;-64
2024/02/18 05:16:09;;;;;;;10.65;6.00;;;;;;;2.83;100.00;98828.72;5036955;28;20051;-63
2024/02/18 05:18:35;;;;;;;11.57;6.35;;;;;;;2.83;100.00;98833.22;5026908;28;20111;-63
2024/02/18 05:21:04;;;;;;;10.85;6.60;;;;;;;2.84;100.00;98824.22;5030038;28;20124;-62
2024/02/18 05:23:36;;;;;;;11.45;7.15;;;;;;;2.82;100.00;98821.72;5014954;28;20609;-62
2024/02/18 05:26:04;;;;;;;9.55;5.90;;;;;;;2.86;100.00;98822.19;5021474;28;20042;-62
2024/02/18 05:28:31;;;;;;;11.65;6.55;;;;;;;2.74;100.00;98821.69;5024922;28;20042;-63
2024/02/18 05:30:57;;;;;;;11.57;7.38;;;;;;;2.67;100.00;98818.84;5023697;28;20492;-63
2024/02/18 05:33:24;;;;;;;12.32;7.15;;;;;;;2.57;100.00;98815.47;5024662;28;20443;-63
2024/02/18 05:35:51;;;;;;;12.20;6.85;;;;;;;2.49;100.00;98808.28;5021548;28;20055;-64
2024/02/18 05:38:18;;;;;;;11.77;6.70;;;;;;;2.37;100.00;98812.25;5022337;28;20045;-63
2024/02/18 05:40:44;;;;;;;11.60;7.18;;;;;;;2.30;100.00;98817.41;5027972;28;20047;-63
2024/02/18 05:43:11;;;;;;;12.55;7.43;;;;;;;2.32;100.00;98826.13;5017910;28;20424;-64
2024/02/18 05:45:38;;;;;;;12.55;7.45;;;;;;;2.29;100.00;98824.59;5024230;28;20037;-63
2024/02/18 05:48:05;;;;;;;13.45;7.75;;;;;;;2.31;100.00;98832.44;5022725;28;20512;-63
2024/02/18 05:50:31;;;;;;;13.93;7.65;;;;;;;2.40;100.00;98833.31;5020632;28;20050;-63
2024/02/18 05:52:58;;;;;;;12.55;8.63;;;;;;;2.55;100.00;98822.84;5020041;28;20037;-62
2024/02/18 05:55:24;;;;;;;12.98;8.65;;;;;;;2.54;100.00;98823.84;5031922;28;20048;-64
2024/02/18 05:57:51;;;;;;;14.30;8.38;;;;;;;2.61;100.00;98824.84;5026868;28;20137;-62
2024/02/18 06:00:18;;;;;;;14.60;9.25;;;;;;;2.65;100.00;98825.38;5019350;28;20053;-63
2024/02/18 06:02:45;;;;;;;15.50;9.25;;;;;;;2.69;100.00;98821.38;5025735;28;20508;-62
2024/02/18 06:05:15;;;;;;;13.77;8.82;;;;;;;2.72;100.00;98821.00;5021747;28;20136;-63
2024/02/18 06:07:42;;;;;;;16.23;9.27;;;;;;;2.82;100.00;98815.50;5027060;28;20037;-64
2024/02/18 06:10:09;;;;;;;13.63;9.40;;;;;;;2.88;100.00;98806.00;5019920;28;20046;-63
2024/02/18 06:12:36;;;;;;;13.57;8.75;;;;;;;2.94;100.00;98803.47;5020837;28;20073;-65
2024/02/18 06:15:02;;;;;;;17.15;8.88;;;;;;;2.98;100.00;98803.97;5023609;28;20052;-63
2024/02/18 06:17:29;;;;;;;13.75;8.05;;;;;;;3.07;100.00;98807.50;5021169;28;20065;-63
2024/02/18 06:19:55;;;;;;;15.10;8.52;;;;;;;3.08;100.00;98793.09;5025813;28;20400;-64
2024/02/18 06:22:22;;;;;;;14.77;8.40;;;;;;;3.04;100.00;98803.31;5022182;28;20605;-63
2024/02/18 06:24:49;;;;;;;14.73;8.32;;;;;;;3.09;100.00;98803.63;5027018;28;20041;-63
2024/02/18 06:27:16;;;;;;;15.25;9.80;;;;;;;3.11;100.00;98798.97;5027517;28;20059;-64
2024/02/18 06:29:42;;;;;;;17.55;9.40;;;;;;;3.08;100.00;98795.78;5021676;28;20493;-64
2024/02/18 06:32:09;;;;;;;15.55;9.70;;;;;;;3.04;100.00;98794.44;5020907;28;20054;-63
2024/02/18 06:34:35;;;;;;;14.77;8.65;;;;;;;3.10;100.00;98791.09;5027256;28;20051;-64
2024/02/18 06:37:02;;;;;;;14.70;8.60;;;;;;;3.13;100.00;98788.06;5016055;28;20042;-64
2024/02/18 06:39:29;;;;;;;18.52;8.77;;;;;;;3.19;100.00;98786.56;5023207;28;20072;-64
2024/02/18 06:41:56;;;;;;;13.80;8.13;;;;;;;3.18;100.00;98780.41;5015213;28;20504;-63
2024/02/18 06:44:23;;;;;;;12.93;8.85;;;;;;;3.20;100.00;98786.41;5012766;28;20077;-63
2024/02/18 06:46:51;;;;;;;13.43;8.35;;;;;;;3.31;100.00;98781.72;5022671;28;20052;-65
2024/02/18 06:49:18;;;;;;;13.30;8.80;;;;;;;3.43;100.00;98782.19;5019858;28;20053;-62
2024/02/18 06:51:45;;;;;;;16.48;9.65;;;;;;;3.48;100.00;98778.00;5022418;28;20076;-64
2024/02/18 06:54:11;;;;;;;15.02;9.20;;;;;;;3.54;100.00;98764.91;5021514;28;20053;-62
2024/02/18 06:56:38;;;;;;;15.50;8.82;;;;;;;3.62;100.00;98756.88;5022194;28;20041;-64
2024/02/18 06:59:05;;;;;;;14.20;8.18;;;;;;;3.68;100.00;98756.16;5018915;28;20049;-62
2024/02/18 07:01:33;;;;;;;13.90;8.75;;;;;;;3.67;100.00;98757.19;5017951;28;20140;-63
2024/02/18 07:04:00;;;;;;;13.65;8.63;;;;;;;3.58;100.00;98755.53;5025780;28;20084;-62
2024/02/18 07:06:26;;;;;;;13.65;7.88;;;;;;;3.60;100.00;98753.50;5022040;28;20042;-61
2024/02/18 07:08:53;;;;;;;13.65;9.10;;;;;;;3.60;100.00;98751.69;5016017;28;20034;-64
2024/02/18 07:11:22;;;;;;;13.75;7.95;;;;;;;3.62;100.00;98756.88;5022825;28;20041;-62
2024/02/18 07:13:49;;;;;;;12.52;7.63;;;;;;;3.67;100.00;98753.66;5020466;28;20425;-64
2024/02/18 07:16:15;;;;;;;13.40;8.18;;;;;;;3.71;100.00;98749.63;5022135;28;20049;-63
2024/02/18 07:18:42;;;;;;;13.02;7.47;;;;;;;3.94;100.00;98747.00;5012059;28;20160;-62
2024/02/18 07:21:09;;;;;;;13.95;8.65;;;;;;;4.07;100.00;98740.25;5028423;28;20049;-62
2024/02/18 07:23:35;;;;;;;12.43;8.20;;;;;;;4.19;100.00;98746.03;5019491;28;20038;-64
2024/02/18 07:26:02;;;;;;;15.00;8.32;;;;;;;4.32;100.00;98748.16;5023834;28;20065;-62
2024/02/18 07:28:28;;;;;;;14.20;8.70;;;;;;;4.43;100.00;98742.38;5011870;28;20037;-63
2024/02/18 07:30:55;;;;;;;16.45;8.38;;;;;;;4.54;100.00;98741.97;5025637;28;20045;-63
2024/02/18 07:33:21;;;;;;;13.55;8.25;;;;;;;4.64;100.00;98733.69;5018610;28;20092;-63
2024/02/18 07:35:48;;;;;;;18.20;9.90;;;;;;;4.74;100.00;98737.97;5021639;28;20041;-64
2024/02/18 07:38:15;;;;;;;13.68;8.00;;;;;;;4.93;100.00;98742.00;5019964;28;20056;-62
2024/02/18 07:40:41;;;;;;;13.50;8.98;;;;;;;5.01;100.00;98743.78;5020713;28;20471;-64
2024/02/18 07:43:08;;;;;;;15.50;9.00;;;;;;;5.13;100.00;98747.69;5023569;28;20053;-64
2024/02/18 07:45:34;;;;;;;15.05;9.68;;;;;;;5.17;100.00;98746.28;5015986;28;20045;-63
2024/02/18 07:48:01;;;;;;;18.27;9.98;;;;;;;5.25;100.00;98740.03;5025410;28;20056;-62
2024/02/18 07:50:27;;;;;;;20.42;10.73;;;;;;;5.36;100.00;98744.09;5023288;28;20099;-62
2024/02/18 07:52:54;;;;;;;18.83;11.40;;;;;;;5.51;100.00;98738.75;5021676;28;20121;-63
2024/02/18 07:55:20;;;;;;;17.30;10.15;;;;;;;5.56;100.00;98749.75;5023387;28;20049;-62
2024/02/18 07:57:47;;;;;;;13.50;9.70;;;;;;;5.62;100.00;98736.59;5020031;28;21596;-63
2024/02/18 08:00:14;;;;;;;18.38;9.18;;;;;;;5.73;100.00;98741.50;5016666;28;20049;-61
2024/02/18 08:02:41;;;;;;;17.30;8.85;;;;;;;5.66;100.00;98737.88;5021897;28;20053;-62
2024/02/18 08:05:08;;;;;;;18.08;9.13;;;;;;;5.73;100.00;98731.59;5019935;28;20536;-63
2024/02/18 08:07:36;;;;;;;15.27;9.82;;;;;;;5.79;100.00;98734.56;5026950;28;20048;-63
2024/02/18 08:10:04;;;;;;;15.35;8.43;;;;;;;5.91;100.00;98733.06;5030019;28;20036;-62
2024/02/18 08:12:31;;;;;;;13.63;8.18;;;;;;;5.97;100.00;98724.22;5022492;28;20038;-63
2024/02/18 08:14:58;;;;;;;17.23;8.90;;;;;;;6.00;100.00;98725.69;5037256;28;20033;-63
2024/02/18 08:17:24;;;;;;;13.77;8.85;;;;;;;6.08;100.00;98725.63;5019090;28;20125;-63
2024/02/18 08:19:51;;;;;;;12.95;8.38;;;;;;;6.19;100.00;98729.69;5025188;28;20041;-63
2024/02/18 08:22:18;;;;;;;15.57;9.13;;;;;;;6.32;100.00;98734.38;5021816;28;20057;-63
2024/02/18 08:24:44;;;;;;;16.23;8.90;;;;;;;6.49;100.00;98728.75;5025505;28;20049;-64
2024/02/18 08:27:11;;;;;;;12.30;7.97;;;;;;;6.56;100.00;98716.19;5025030;28;20072;-62
2024/02/18 08:29:40;;;;;;;11.73;7.35;;;;;;;6.63;100.00;98713.56;5018918;28;20051;-64
2024/02/18 08:32:07;;;;;;;13.18;8.02;;;;;;;6.69;100.00;98711.94;5022767;28;20056;-62
2024/02/18 08:34:34;;;;;;;14.43;8.90;;;;;;;6.71;100.00;98709.91;5027021;28;20706;-62
2024/02/18 08:37:00;;;;;;;14.43;7.97;;;;;;;6.77;100.00;98709.13;5025076;28;20507;-63
2024/02/18 08:39:27;;;;;;;11.88;7.93;;;;;;;6.86;100.00;98702.56;5022223;28;20049;-62
2024/02/18 08:41:55;;;;;;;13.90;8.82;;;;;;;6.98;100.00;98702.03;5022195;28;20103;-63
2024/02/18 08:44:22;;;;;;;11.95;8.43;;;;;;;7.03;100.00;98697.75;5021250;28;20546;-64
2024/02/18 08:46:50;;;;;;;12.80;8.43;;;;;;;7.13;100.00;98697.41;5023296;28;20052;-62
2024/02/18 08:49:16;;;;;;;13.73;7.70;;;;;;;7.22;100.00;98700.75;5027260;28;20412;-63
2024/02/18 08:51:43;;;;;;;10.80;7.30;;;;;;;7.35;100.00;98700.03;5023937;28;20048;-63
2024/02/18 08:54:10;;;;;;;13.48;8.23;;;;;;;7.39;100.00;98705.84;5020854;28;20052;-63
2024/02/18 08:56:36;;;;;;;13.88;8.18;;;;;;;7.50;100.00;98694.50;5018020;28;20045;-63
2024/02/18 08:59:03;;;;;;;13.68;8.40;;;;;;;7.49;100.00;98687.44;5019937;28;20040;-64
2024/02/18 09:01:29;;;;;;;11.80;8.35;;;;;;;7.53;100.00;98691.41;5022321;28;20043;-62
2024/02/18 09:03:56;;;;;;;14.93;7.93;;;;;;;7.79;100.00;98684.50;5027491;28;20037;-63
2024/02/18 09:06:23;;;;;;;12.70;8.02;;;;;;;7.96;100.00;98670.63;5016214;28;20057;-62
2024/02/18 09:08:49;;;;;;;14.82;9.18;;;;;;;8.01;100.00;98670.03;5018912;28;20453;-62
2024/02/18 09:11:16;;;;;;;12.25;7.70;;;;;;;8.16;100.00;98673.41;5020813;28;20057;-62
2024/02/18 09:13:43;;;;;;;12.10;8.07;;;;;;;8.28;100.00;98670.06;5024707;28;20049;-63
2024/02/18 09:16:09;;;;;;;12.50;7.22;;;;;;;8.43;100.00;98672.59;5019914;28;20112;-63
2024/02/18 09:18:37;;;;;;;11.82;7.60;;;;;;;8.74;100.00;98675.78;5018720;28;20128;-64
2024/02/18 09:21:04;;;;;;;11.77;7.80;;;;;;;8.70;100.00;98667.25;5018079;28;20088;-63
2024/02/18 09:23:31;;;;;;;11.15;7.05;;;;;;;8.93;100.00;98666.00;5018650;28;20120;-63
2024/02/18 09:25:57;;;;;;;11.65;8.05;;;;;;;8.98;100.00;98672.44;5017114;28;20414;-63
2024/02/18 09:28:24;;;;;;;13.00;7.25;;;;;;;9.16;100.00;98662.84;5012789;28;20055;-63
2024/02/18 09:30:50;;;;;;;13.18;8.10;;;;;;;9.45;100.00;98660.72;5020989;28;20045;-63
2024/02/18 09:33:17;;;;;;;11.27;8.00;;;;;;;9.41;100.00;98654.06;5013613;28;20104;-67
2024/02/18 09:35:44;;;;;;;18.60;11.25;;;;;;;9.63;100.00;98660.00;5013786;28;20049;-65
2024/02/18 09:38:12;;;;;;;14.38;8.73;;;;;;;9.63;100.00;98660.00;5019071;28;20057;-66
2024/02/18 09:40:39;;;;;;;15.45;10.25;;;;;;;9.57;100.00;98658.16;5016553;28;20584;-63
2024/02/18 09:43:07;;;;;;;14.30;9.80;;;;;;;9.56;100.00;98652.97;5022052;28;20433;-62
2024/02/18 09:45:36;;;;;;;19.42;11.82;;;;;;;9.48;100.00;98651.34;5021849;28;20131;-63
2024/02/18 09:48:05;;;;;;;14.07;8.75;;;;;;;9.63;100.00;98651.06;5021017;28;20115;-63
2024/02/18 09:50:34;;;;;;;11.82;7.90;;;;;;;9.83;100.00;98642.88;5017714;28;20034;-63
2024/02/18 09:53:04;;;;;;;14.40;8.52;;;;;;;9.87;100.00;98633.28;5023376;28;20578;-63
2024/02/18 09:55:30;;;;;;;12.18;8.30;;;;;;;9.72;100.00;98625.44;5023388;28;20038;-63
2024/02/18 09:57:57;;;;;;;16.50;8.45;;;;;;;9.83;100.00;98628.50;5029752;28;20041;-63
2024/02/18 10:00:25;;;;;;;19.63;10.90;;;;;;;9.95;100.00;98628.66;5022927;28;20037;-62
2024/02/18 10:02:52;;;;;;;16.80;9.88;;;;;;;9.97;100.00;98622.00;5014397;28;20053;-63
2024/02/18 10:05:18;;;;;;;11.45;7.72;;;;;;;10.19;100.00;98631.63;5016741;28;20052;-63
2024/02/18 10:07:58;;;;;;;13.32;7.35;;;;;;;10.21;100.00;98632.25;5023701;28;20816;-63
2024/02/18 10:10:24;;;;;;;11.32;7.20;;;;;;;10.30;100.00;98627.38;5027766;28;20049;-63
2024/02/18 10:12:52;;;;;;;10.38;6.00;;;;;;;10.18;100.00;98624.56;5018357;28;20049;-63
2024/02/18 10:15:19;;;;;;;12.80;7.13;;;;;;;10.14;100.00;98613.34;5018593;28;20045;-63
2024/02/18 10:17:46;;;;;;;13.50;8.98;;;;;;;10.24;100.00;98612.84;5020145;28;20516;-62
2024/02/18 10:20:14;;;;;;;10.05;6.60;;;;;;;10.26;100.00;98603.47;5023269;28;20044;-64
2024/02/18 10:22:42;;;;;;;9.40;6.20;;;;;;;10.33;100.00;98608.00;5022607;28;20759;-63
2024/02/18 10:25:10;;;;;;;8.77;5.80;;;;;;;10.58;98.91;98604.50;5015397;28;20080;-64
2024/02/18 10:27:37;;;;;;;9.20;5.60;;;;;;;10.66;98.72;98601.53;5017082;28;20048;-64
2024/02/18 10:30:07;;;;;;;8.05;5.13;;;;;;;10.79;96.44;98606.81;5022128;28;20045;-63
2024/02/18 10:32:33;;;;;;;6.95;4.35;;;;;;;10.76;96.73;98604.53;5017834;28;20491;-64
2024/02/18 10:35:04;;;;;;;6.85;4.57;;;;;;;10.60;94.70;98591.56;5021014;28;20044;-63
2024/02/18 10:37:42;;;;;;;8.82;4.90;;;;;;;10.49;94.17;98591.25;5024227;28;20046;-64
2024/02/18 10:40:39;;;;;;;10.18;4.60;;;;;;;10.83;92.25;98585.50;5015846;28;20562;-63
2024/02/18 10:43:11;;;;;;;7.55;4.65;;;;;;;10.74;92.80;98587.69;5017356;28;20064;-64
2024/02/18 10:45:40;;;;;;;7.45;4.22;;;;;;;10.82;90.85;98583.88;5028720;28;20056;-64
2024/02/18 10:48:10;;;;;;;7.32;4.20;;;;;;;10.61;91.97;98577.81;5020941;28;20569;-64
2024/02/18 10:50:49;;;;;;;6.68;4.22;;;;;;;10.66;90.65;98580.66;5017626;28;20120;-64
2024/02/18 10:53:25;;;;;;;5.95;4.05;;;;;;;10.89;90.01;98570.25;5015977;28;20998;-63
2024/02/18 10:56:05;;;;;;;7.10;3.88;;;;;;;10.89;88.47;98575.66;5014660;28;20037;-63
2024/02/18 10:59:04;;;;;;;8.20;3.90;;;;;;;11.09;88.81;98572.75;5018915;28;20121;-65
2024/02/18 11:01:38;;;;;;;19.75;10.82;;;;;;;11.07;91.74;98564.03;5021248;28;20039;-63
2024/02/18 11:04:07;;;;;;;12.50;7.25;;;;;;;11.09;92.13;98567.31;5024335;28;20068;-63
2024/02/18 11:06:35;;;;;;;9.02;5.07;;;;;;;11.21;91.41;98559.28;5018033;28;20461;-63
2024/02/18 11:09:08;;;;;;;10.00;5.53;;;;;;;11.60;89.21;98556.28;5021740;28;20126;-63
2024/02/18 11:11:35;;;;;;;6.70;4.03;;;;;;;11.39;86.95;98555.69;5020678;28;20103;-63
2024/02/18 11:14:04;;;;;;;5.75;3.22;;;;;;;11.16;86.62;98542.84;5024606;28;20170;-64
2024/02/18 11:16:32;;;;;;;8.20;3.83;;;;;;;11.13;88.32;98544.13;5029625;28;20045;-64
2024/02/18 11:19:03;;;;;;;6.43;3.78;;;;;;;11.09;87.89;98544.81;5030278;28;20048;-64
2024/02/18 11:21:30;;;;;;;6.22;3.75;;;;;;;11.07;87.31;98536.91;5028813;28;20047;-66
2024/02/18 11:23:58;;;;;;;6.80;3.92;;;;;;;10.90;88.05;98529.38;5026178;28;20048;-65
2024/02/18 11:26:25;;;;;;;5.97;3.70;;;;;;;10.91;87.37;98524.81;5036856;28;20733;-65
2024/02/18 11:28:52;;;;;;;6.25;3.90;;;;;;;10.90;87.09;98521.25;5024414;28;20378;-66